Farm — LBHF — position and weather

sailwx.info

Track history (hours):
 
Tides and Currents Weather Stations Pressure Air Temp Water Temp Dewpoint Dewpoint Depression Visibility Wind Speed Wind Dir Waves Ship Positions

Farm

Last reported at 2017-Apr-28 23:28 UTC. Time now 2017-Apr-28 23:47 UTC.
Position N 69°54' E 018°36'.

Length 46 m; draft 4 m.

Type: Law enforcement. MMSI: 257069200.

Date/timePositionNaut miles runAvg speedWind from/ knotsBaromVisibWave heightAir tempDewpointWater temp
2017-Apr-28 23:28N 69°54' E 018°36'0 0.1
2017-Apr-28 22:58N 69°54' E 018°36'0 0.1
2017-Apr-28 22:28N 69°54' E 018°36'0 0.1
2017-Apr-28 21:58N 69°54' E 018°36'0 0.1
2017-Apr-28 21:28N 69°54' E 018°36'0 0.0
2017-Apr-28 20:55N 69°54' E 018°36'0 0.0
2017-Apr-28 20:28N 69°54' E 018°36'1 1.1
2017-Apr-28 20:00N 69°54' E 018°38'4 8.6
2017-Apr-28 19:30N 69°53' E 018°50'510.0
2017-Apr-28 19:00N 69°49' E 018°60'3 6.5
2017-Apr-28 18:30N 69°46' E 019°04'0 0.3
2017-Apr-28 18:00N 69°46' E 019°04'0 0.4
2017-Apr-28 17:30N 69°46' E 019°04'0 0.3
2017-Apr-28 17:00N 69°47' E 019°04'0 0.2
2017-Apr-28 16:30N 69°47' E 019°05'0 0.7
2017-Apr-28 16:00N 69°47' E 019°04'3 6.2
2017-Apr-28 15:30N 69°49' E 018°60'4 7.7
2017-Apr-28 15:00N 69°52' E 018°51'7 6.6
2017-Apr-28 14:00N 69°57' E 018°37'0 0.2
2017-Apr-28 13:30N 69°57' E 018°37'1 3.0
2017-Apr-28 13:01N 69°58' E 018°35'5 9.6
2017-Apr-28 12:30N 70°03' E 018°36'2 4.6
2017-Apr-28 12:00N 70°05' E 018°38'1 2.1
2017-Apr-28 11:30N 70°06' E 018°38'0 0.4
2017-Apr-28 11:01N 70°06' E 018°39'0 0.4
2017-Apr-28 10:30N 70°05' E 018°39'2 3.5
2017-Apr-28 10:00N 70°07' E 018°40'3 5.2
2017-Apr-28 09:29N 70°09' E 018°46'2 3.3
2017-Apr-28 09:00N 70°08' E 018°44'4 8.5
2017-Apr-28 08:30N 70°09' E 018°57'5 9.9
2017-Apr-28 08:00N 70°06' E 019°09'5 9.7
2017-Apr-28 07:30N 70°10' E 019°17'3 7.0
2017-Apr-28 07:00N 70°13' E 019°16'0 0.1
2017-Apr-28 06:28N 70°14' E 019°16'0 0.0
2017-Apr-28 05:58N 70°14' E 019°16'0 0.1
2017-Apr-28 05:28N 70°14' E 019°16'0 0.0
2017-Apr-28 04:58N 70°14' E 019°16'0 0.0
2017-Apr-28 04:28N 70°14' E 019°16'0 0.0
2017-Apr-28 03:58N 70°14' E 019°16'0 0.1
2017-Apr-28 03:28N 70°14' E 019°16'0 0.2
2017-Apr-28 02:58N 70°13' E 019°16'0 0.1
2017-Apr-28 02:28N 70°13' E 019°16'0 0.0
2017-Apr-28 01:58N 70°13' E 019°16'0 0.0
2017-Apr-28 01:28N 70°13' E 019°16'0 0.0
2017-Apr-28 00:58N 70°13' E 019°16'0 0.0
2017-Apr-28 00:28N 70°13' E 019°16'0 0.0
2017-Apr-27 23:58N 70°13' E 019°16'0 0.0
2017-Apr-27 23:28N 70°13' E 019°16'0 0.0
2017-Apr-27 22:58N 70°13' E 019°16'0 0.0
2017-Apr-27 22:28N 70°13' E 019°16'0 0.0
2017-Apr-27 21:58N 70°13' E 019°16'0 0.0
2017-Apr-27 21:28N 70°13' E 019°16'0 0.0
2017-Apr-27 20:58N 70°13' E 019°16'0 0.0
2017-Apr-27 20:28N 70°13' E 019°16'0 0.0
2017-Apr-27 19:58N 70°13' E 019°16'0 0.0
2017-Apr-27 19:28N 70°13' E 019°16'0 0.0
2017-Apr-27 18:58N 70°13' E 019°16'0 0.0
2017-Apr-27 18:28N 70°13' E 019°16'0 0.2
2017-Apr-27 18:00N 70°13' E 019°16'3 5.6
2017-Apr-27 17:30N 70°12' E 019°23'5 9.3
2017-Apr-27 17:00N 70°08' E 019°32'3 6.0
2017-Apr-27 16:30N 70°06' E 019°37'4 8.3
2017-Apr-27 16:00N 70°03' E 019°45'612.0
2017-Apr-27 15:30N 70°04' E 020°03'612.7
2017-Apr-27 15:00N 70°08' E 020°16'1211.6
2017-Apr-27 14:00N 70°15' E 020°44'612.5
2017-Apr-27 13:30N 70°16' E 021°02'510.4
2017-Apr-27 13:00N 70°17' E 021°17'5 9.0
2017-Apr-27 12:30N 70°20' E 021°29'612.1
2017-Apr-27 12:00N 70°24' E 021°41'612.4
2017-Apr-27 11:30N 70°21' E 021°58'510.5
2017-Apr-27 11:00N 70°19' E 022°12'3 5.7
2017-Apr-27 10:30N 70°18' E 022°20'713.1
2017-Apr-27 10:00N 70°15' E 022°37'713.2
2017-Apr-27 09:30N 70°13' E 022°56'712.9
2017-Apr-27 09:00N 70°07' E 023°04'612.3
2017-Apr-27 08:30N 70°02' E 023°15'4 7.4
2017-Apr-27 08:00N 69°59' E 023°20'0 0.0
2017-Apr-27 07:29N 69°59' E 023°20'0 0.0
2017-Apr-27 06:59N 69°59' E 023°20'0 0.0
2017-Apr-27 06:29N 69°59' E 023°20'0 0.0
2017-Apr-27 05:59N 69°59' E 023°20'0 0.0
2017-Apr-27 05:29N 69°59' E 023°20'0 0.0
2017-Apr-27 04:59N 69°59' E 023°20'0 0.0
2017-Apr-27 04:29N 69°59' E 023°20'0 0.0
2017-Apr-27 03:59N 69°59' E 023°20'0 0.0
2017-Apr-27 03:29N 69°59' E 023°20'0 0.0
2017-Apr-27 02:59N 69°59' E 023°20'0 0.0
2017-Apr-27 02:29N 69°59' E 023°20'0 0.0
2017-Apr-27 01:59N 69°59' E 023°20'0 0.0
2017-Apr-27 01:29N 69°59' E 023°20'0 0.0
2017-Apr-27 00:59N 69°59' E 023°20'0 0.0
2017-Apr-27 00:29N 69°59' E 023°20'0 0.0
2017-Apr-26 23:59N 69°59' E 023°20'0 0.0
2017-Apr-26 23:29N 69°59' E 023°20'0 0.0
2017-Apr-26 22:59N 69°59' E 023°20'0 0.0
2017-Apr-26 22:29N 69°59' E 023°20'0 0.0
2017-Apr-26 21:59N 69°59' E 023°20'0 0.0
2017-Apr-26 21:29N 69°59' E 023°20'0 0.0
2017-Apr-26 20:59N 69°59' E 023°20'0 0.0
2017-Apr-26 20:29N 69°59' E 023°20'0 0.0
2017-Apr-26 19:59N 69°59' E 023°20'0 0.0
2017-Apr-26 19:29N 69°59' E 023°20'0 0.0
2017-Apr-26 18:59N 69°59' E 023°20'0 0.0
2017-Apr-26 18:29N 69°59' E 023°20'0 0.0
2017-Apr-26 17:59N 69°59' E 023°20'0 0.0
2017-Apr-26 17:29N 69°59' E 023°20'0 0.0
2017-Apr-26 16:59N 69°59' E 023°20'0 0.0
2017-Apr-26 16:29N 69°59' E 023°20'0 0.0
2017-Apr-26 15:59N 69°59' E 023°20'0 0.0
2017-Apr-26 15:29N 69°59' E 023°20'0 0.0
2017-Apr-26 14:59N 69°59' E 023°20'0 0.0
2017-Apr-26 14:29N 69°59' E 023°20'0 0.0
2017-Apr-26 13:29N 69°59' E 023°20'0 0.0
2017-Apr-26 12:59N 69°59' E 023°20'0 0.0
2017-Apr-26 12:29N 69°59' E 023°20'0 0.0
2017-Apr-26 11:59N 69°59' E 023°20'0 0.0
2017-Apr-26 11:29N 69°59' E 023°20'0 0.0
2017-Apr-26 10:59N 69°59' E 023°20'0 0.0
2017-Apr-26 10:29N 69°59' E 023°20'0 0.0
2017-Apr-26 09:59N 69°59' E 023°20'0 0.0
2017-Apr-26 09:29N 69°59' E 023°20'0 0.0
2017-Apr-26 08:59N 69°59' E 023°20'0 0.0
2017-Apr-26 08:29N 69°59' E 023°20'0 0.0
2017-Apr-26 07:59N 69°59' E 023°20'0 0.0
2017-Apr-26 07:29N 69°59' E 023°20'0 0.0
2017-Apr-26 06:59N 69°59' E 023°20'0 0.0
2017-Apr-26 06:29N 69°59' E 023°20'0 0.0
2017-Apr-26 05:59N 69°59' E 023°20'0 0.0
2017-Apr-26 05:29N 69°59' E 023°20'0 0.0
2017-Apr-26 04:59N 69°59' E 023°20'0 0.0
2017-Apr-26 04:29N 69°59' E 023°20'0 0.0
2017-Apr-26 03:59N 69°59' E 023°20'0 0.0
2017-Apr-26 03:29N 69°59' E 023°20'0 0.0
2017-Apr-26 02:59N 69°59' E 023°20'0 0.0
2017-Apr-26 02:29N 69°59' E 023°20'0 0.0
2017-Apr-26 01:59N 69°59' E 023°20'0 0.0
2017-Apr-26 01:29N 69°59' E 023°20'0 0.0
2017-Apr-26 00:59N 69°59' E 023°20'0 0.0
2017-Apr-26 00:29N 69°59' E 023°20'0 0.0
2017-Apr-25 23:59N 69°59' E 023°20'0 0.0
2017-Apr-25 23:29N 69°59' E 023°20'0 0.0
2017-Apr-25 22:59N 69°59' E 023°20'0 0.0
2017-Apr-25 22:29N 69°59' E 023°20'0 0.0
2017-Apr-25 21:59N 69°59' E 023°20'0 0.0
2017-Apr-25 21:29N 69°59' E 023°20'0 0.0
2017-Apr-25 20:59N 69°59' E 023°20'0 0.0
2017-Apr-25 20:29N 69°59' E 023°20'0 0.0
2017-Apr-25 19:59N 69°59' E 023°20'0 0.0
2017-Apr-25 19:29N 69°59' E 023°20'0 0.0
2017-Apr-25 18:59N 69°59' E 023°20'0 0.0
2017-Apr-25 18:29N 69°59' E 023°20'0 0.0
2017-Apr-25 17:59N 69°59' E 023°20'0 0.0
2017-Apr-25 17:29N 69°59' E 023°20'0 0.0
2017-Apr-25 16:59N 69°59' E 023°20'0 0.0
2017-Apr-25 16:29N 69°59' E 023°20'0 0.0
2017-Apr-25 15:59N 69°59' E 023°20'0 0.0
2017-Apr-25 15:29N 69°59' E 023°20'0 0.0
2017-Apr-25 14:59N 69°59' E 023°20'0 0.0
2017-Apr-25 14:29N 69°59' E 023°20'0 0.0
2017-Apr-25 13:29N 69°59' E 023°20'0 0.0
2017-Apr-25 12:59N 69°59' E 023°20'0 0.0
2017-Apr-25 12:29N 69°59' E 023°20'0 0.0
2017-Apr-25 11:59N 69°59' E 023°20'0 0.0
2017-Apr-25 11:29N 69°59' E 023°20'0 0.0
2017-Apr-25 10:59N 69°59' E 023°20'0 0.0
2017-Apr-25 10:29N 69°59' E 023°20'0 0.0
2017-Apr-25 09:59N 69°59' E 023°20'0 0.0
2017-Apr-25 09:29N 69°59' E 023°20'0 0.0
2017-Apr-25 08:59N 69°59' E 023°20'0 0.0
2017-Apr-25 08:29N 69°59' E 023°20'0 0.0
2017-Apr-25 07:59N 69°59' E 023°20'0 0.0
2017-Apr-25 07:29N 69°59' E 023°20'0 0.0
2017-Apr-25 06:59N 69°59' E 023°20'0 0.0
2017-Apr-25 06:29N 69°59' E 023°20'0 0.0
2017-Apr-25 05:59N 69°59' E 023°20'0 0.0
2017-Apr-25 05:29N 69°59' E 023°20'0 0.3
2017-Apr-25 05:00N 69°59' E 023°19'3 5.1
2017-Apr-25 04:30N 70°01' E 023°17'5 9.9
2017-Apr-25 04:00N 70°05' E 023°07'5 9.3
2017-Apr-25 03:30N 70°09' E 023°00'0 0.9
2017-Apr-25 02:59N 70°09' E 022°59'0 0.0
2017-Apr-25 02:29N 70°09' E 022°59'0 0.1
2017-Apr-25 01:59N 70°09' E 022°59'0 0.0
2017-Apr-25 01:29N 70°09' E 022°59'0 0.1
2017-Apr-25 00:59N 70°09' E 022°59'0 0.1
2017-Apr-25 00:29N 70°09' E 022°59'0 0.1
2017-Apr-24 23:59N 70°09' E 022°59'0 0.0
2017-Apr-24 23:29N 70°09' E 022°59'0 0.0
2017-Apr-24 22:59N 70°09' E 022°59'0 0.1
2017-Apr-24 22:29N 70°09' E 022°59'0 0.0
2017-Apr-24 21:59N 70°09' E 022°59'0 0.0
2017-Apr-24 21:29N 70°09' E 022°59'0 0.0
2017-Apr-24 20:59N 70°09' E 022°59'0 0.0
2017-Apr-24 20:29N 70°09' E 022°59'0 0.0
2017-Apr-24 19:59N 70°09' E 022°59'0 0.1
2017-Apr-24 19:29N 70°09' E 022°59'0 0.0
2017-Apr-24 18:59N 70°09' E 022°59'0 0.1
2017-Apr-24 18:29N 70°09' E 022°59'0 0.0
2017-Apr-24 17:59N 70°09' E 022°59'0 0.0
2017-Apr-24 17:29N 70°09' E 022°59'0 0.0
2017-Apr-24 16:59N 70°09' E 022°59'0 0.0
2017-Apr-24 16:29N 70°09' E 022°59'0 0.1
2017-Apr-24 15:59N 70°09' E 022°59'0 0.0
2017-Apr-24 15:29N 70°09' E 022°59'0 0.0
2017-Apr-24 14:59N 70°09' E 022°59'0 0.0
2017-Apr-24 14:29N 70°09' E 022°59'0 0.0
2017-Apr-24 13:29N 70°09' E 022°59'0 0.0
2017-Apr-24 12:59N 70°09' E 022°59'0 0.0
2017-Apr-24 12:29N 70°09' E 022°59'0 0.0
2017-Apr-24 11:59N 70°09' E 022°59'0 0.0
2017-Apr-24 11:29N 70°09' E 022°59'0 0.0
2017-Apr-24 10:59N 70°09' E 022°59'0 0.1
2017-Apr-24 10:29N 70°09' E 022°59'0 0.0
2017-Apr-24 09:59N 70°09' E 022°59'0 0.0
2017-Apr-24 09:29N 70°09' E 022°59'0 0.1
2017-Apr-24 08:59N 70°09' E 022°59'0 0.0
2017-Apr-24 08:29N 70°09' E 022°59'0 0.0
2017-Apr-24 07:59N 70°09' E 022°59'0 0.0
2017-Apr-24 07:29N 70°09' E 022°59'0 0.0
2017-Apr-24 06:59N 70°09' E 022°59'0 0.0
2017-Apr-24 06:29N 70°09' E 022°59'0 0.0
2017-Apr-24 05:59N 70°09' E 022°59'0 0.0
2017-Apr-24 05:29N 70°09' E 022°59'0 0.0
2017-Apr-24 04:59N 70°09' E 022°59'0 0.0
2017-Apr-24 04:29N 70°09' E 022°59'0 0.0
2017-Apr-24 03:59N 70°09' E 022°59'0 0.0
2017-Apr-24 03:29N 70°09' E 022°59'0 0.0
2017-Apr-24 02:59N 70°09' E 022°59'0 0.0
2017-Apr-24 02:29N 70°09' E 022°59'0 0.0
2017-Apr-24 01:59N 70°09' E 022°59'0 0.1
2017-Apr-24 01:29N 70°09' E 022°59'0 0.0
2017-Apr-24 00:59N 70°09' E 022°59'0 0.0
2017-Apr-24 00:29N 70°09' E 022°59'0 0.1
2017-Apr-23 23:59N 70°09' E 022°59'0 0.0
2017-Apr-23 23:29N 70°09' E 022°59'0 0.0
2017-Apr-23 22:59N 70°09' E 022°59'0 0.0
2017-Apr-23 22:29N 70°09' E 022°59'0 0.0
2017-Apr-23 21:59N 70°09' E 022°59'0 0.1
2017-Apr-23 21:29N 70°09' E 022°59'0 0.0
2017-Apr-23 20:59N 70°09' E 022°59'0 0.1
2017-Apr-23 20:30N 70°09' E 022°59'4 7.3
2017-Apr-23 20:00N 70°12' E 022°58'510.4
2017-Apr-23 19:30N 70°14' E 022°43'510.3
2017-Apr-23 19:00N 70°15' E 022°28'3 5.6
2017-Apr-23 18:30N 70°14' E 022°21'0 0.0
2017-Apr-23 18:00N 70°14' E 022°21'0 0.0
2017-Apr-23 17:31N 70°14' E 022°21'1 2.5
2017-Apr-23 17:00N 70°15' E 022°20'4 9.0
2017-Apr-23 16:30N 70°16' E 022°33'4 8.4
2017-Apr-23 16:00N 70°15' E 022°44'2 4.1
2017-Apr-23 15:30N 70°15' E 022°50'4 7.2
2017-Apr-23 15:00N 70°15' E 023°01'6 6.1
2017-Apr-23 14:00N 70°21' E 022°56'3 6.3
2017-Apr-23 13:30N 70°18' E 022°60'4 8.5
2017-Apr-23 13:00N 70°13' E 023°00'3 5.7
2017-Apr-23 12:30N 70°11' E 022°58'5 9.8
2017-Apr-23 12:00N 70°12' E 023°12'3 6.7
2017-Apr-23 11:30N 70°09' E 023°18'2 3.5
2017-Apr-23 11:00N 70°07' E 023°19'510.2
2017-Apr-23 10:30N 70°07' E 023°04'1 2.2
2017-Apr-23 10:00N 70°07' E 023°01'2 4.8
2017-Apr-23 09:30N 70°05' E 023°06'3 5.3
2017-Apr-23 09:00N 70°03' E 023°05'2 3.2
2017-Apr-23 08:30N 70°01' E 023°02'2 4.2
2017-Apr-23 07:59N 70°02' E 023°08'5 9.6
2017-Apr-23 07:30N 70°01' E 023°22'0 0.1
2017-Apr-23 07:00N 70°01' E 023°22'1 2.1
2017-Apr-23 06:30N 70°00' E 023°24'0 0.6
2017-Apr-23 06:00N 70°00' E 023°25'0 0.0
2017-Apr-23 05:30N 70°00' E 023°25'0 0.0
2017-Apr-23 05:00N 70°00' E 023°25'0 0.1
2017-Apr-23 04:30N 70°00' E 023°25'0 0.0
2017-Apr-23 04:00N 70°00' E 023°25'0 0.0
2017-Apr-23 03:30N 70°00' E 023°25'0 0.0
2017-Apr-23 03:00N 70°00' E 023°25'0 0.0
2017-Apr-23 02:30N 70°00' E 023°25'0 0.0
2017-Apr-23 02:00N 70°00' E 023°25'0 0.0
2017-Apr-23 01:30N 70°00' E 023°25'0 0.0
2017-Apr-23 01:00N 70°00' E 023°25'0 0.0
2017-Apr-23 00:30N 70°00' E 023°25'0 0.0
2017-Apr-23 00:00N 70°00' E 023°25'0 0.0
2017-Apr-22 23:30N 70°00' E 023°25'0 0.0
2017-Apr-22 23:00N 70°00' E 023°25'0 0.0
2017-Apr-22 22:30N 70°00' E 023°25'0 0.0
2017-Apr-22 22:00N 70°00' E 023°25'0 0.0
2017-Apr-22 21:30N 70°00' E 023°25'0 0.2
2017-Apr-22 21:00N 70°00' E 023°25'5 8.9
2017-Apr-22 20:30N 70°02' E 023°13'3 6.7
2017-Apr-22 20:00N 70°05' E 023°07'510.4
2017-Apr-22 19:30N 70°10' E 023°08'510.3
2017-Apr-22 19:00N 70°15' E 023°14'510.7
2017-Apr-22 18:30N 70°19' E 023°23'510.2
2017-Apr-22 18:00N 70°23' E 023°33'1 1.4
2017-Apr-22 17:30N 70°23' E 023°32'511.0
2017-Apr-22 17:00N 70°19' E 023°23'4 7.7
2017-Apr-22 16:30N 70°16' E 023°17'0 0.4
2017-Apr-22 16:00N 70°16' E 023°16'2 3.4
2017-Apr-22 15:30N 70°16' E 023°11'2 5.0
2017-Apr-22 15:00N 70°17' E 023°04'1 2.8
2017-Apr-22 14:31N 70°16' E 023°01'5 5.3
2017-Apr-22 13:30N 70°13' E 022°49'2 3.3
2017-Apr-22 13:00N 70°13' E 022°44'510.8
2017-Apr-22 12:30N 70°15' E 022°29'1 2.1
2017-Apr-22 12:00N 70°16' E 022°31'1 1.5
2017-Apr-22 11:30N 70°16' E 022°33'0 0.3
2017-Apr-22 11:00N 70°16' E 022°32'1 2.3
2017-Apr-22 10:30N 70°16' E 022°29'0 0.0
2017-Apr-22 10:00N 70°16' E 022°29'0 0.0
2017-Apr-22 09:30N 70°16' E 022°29'0 0.0
2017-Apr-22 09:00N 70°16' E 022°29'1 2.1
2017-Apr-22 08:30N 70°16' E 022°26'3 4.9
2017-Apr-22 07:59N 70°14' E 022°21'0 0.0
2017-Apr-22 07:29N 70°14' E 022°21'0 0.0
2017-Apr-22 06:59N 70°14' E 022°21'0 0.0
2017-Apr-22 06:29N 70°14' E 022°21'0 0.2
2017-Apr-22 06:00N 70°14' E 022°21'1 2.3
2017-Apr-22 05:30N 70°13' E 022°18'1 2.4
2017-Apr-22 05:00N 70°15' E 022°19'2 4.2
2017-Apr-22 04:30N 70°17' E 022°19'3 5.6
2017-Apr-22 04:00N 70°19' E 022°13'3 5.6
2017-Apr-22 03:30N 70°20' E 022°06'3 5.9
2017-Apr-22 03:00N 70°21' E 021°58'3 5.9
2017-Apr-22 02:30N 70°23' E 021°50'3 6.1
2017-Apr-22 02:00N 70°24' E 021°42'3 6.2
2017-Apr-22 01:30N 70°22' E 021°35'3 6.5
2017-Apr-22 01:00N 70°19' E 021°29'3 6.6
2017-Apr-22 00:30N 70°17' E 021°22'3 6.5
2017-Apr-22 00:00N 70°15' E 021°14'3 6.4
2017-Apr-21 23:30N 70°13' E 021°07'3 6.4
2017-Apr-21 23:00N 70°10' E 021°03'3 6.3
2017-Apr-21 22:29N 70°07' E 020°59'3 5.9
2017-Apr-21 22:00N 70°04' E 020°55'3 5.8
2017-Apr-21 21:30N 70°03' E 020°48'3 6.3
2017-Apr-21 21:00N 70°02' E 020°40'3 5.8
2017-Apr-21 20:30N 70°01' E 020°32'3 5.8
2017-Apr-21 20:00N 69°60' E 020°24'3 6.2
2017-Apr-21 19:29N 69°59' E 020°15'3 5.9
2017-Apr-21 19:00N 69°57' E 020°08'3 5.7
2017-Apr-21 18:30N 69°55' E 020°02'3 6.3
2017-Apr-21 18:00N 69°53' E 019°55'4 8.2
2017-Apr-21 17:30N 69°51' E 019°45'4 8.4
2017-Apr-21 17:00N 69°49' E 019°34'4 8.7
2017-Apr-21 16:30N 69°48' E 019°22'4 8.5
2017-Apr-21 16:00N 69°47' E 019°11'4 7.4
2017-Apr-21 15:30N 69°44' E 019°04'3 6.6
2017-Apr-21 15:00N 69°41' E 019°00'0 0.8
2017-Apr-21 14:30N 69°40' E 018°59'0 0.5
2017-Apr-21 13:30N 69°40' E 018°59'1 1.0
2017-Apr-21 12:59N 69°39' E 018°58'0 0.0
2017-Apr-21 12:29N 69°39' E 018°58'0 0.0
2017-Apr-21 11:59N 69°39' E 018°58'0 0.0
2017-Apr-21 11:29N 69°39' E 018°58'0 0.0
2017-Apr-21 10:59N 69°39' E 018°58'0 0.0
2017-Apr-21 10:29N 69°39' E 018°58'0 0.0
2017-Apr-21 09:59N 69°39' E 018°58'0 0.0
2017-Apr-21 09:29N 69°39' E 018°58'0 0.0
2017-Apr-21 08:59N 69°39' E 018°58'0 0.4
2017-Apr-21 08:30N 69°40' E 018°59'1 1.6
2017-Apr-21 08:00N 69°40' E 018°59'2 3.8
2017-Apr-21 07:30N 69°42' E 019°03'1 1.1
2017-Apr-21 07:00N 69°42' E 019°04'0 0.0
2017-Apr-21 06:30N 69°42' E 019°04'0 0.0
2017-Apr-21 06:00N 69°42' E 019°04'0 0.0
2017-Apr-21 05:30N 69°42' E 019°04'0 0.5
2017-Apr-21 05:00N 69°42' E 019°04'0 0.2
2017-Apr-21 04:30N 69°42' E 019°04'1 1.3
2017-Apr-21 04:00N 69°43' E 019°04'2 3.8
2017-Apr-21 03:30N 69°44' E 019°03'0 0.3
2017-Apr-21 03:00N 69°45' E 019°03'0 0.4
2017-Apr-21 02:30N 69°45' E 019°03'0 0.2
2017-Apr-21 02:00N 69°45' E 019°03'1 1.6
2017-Apr-21 01:29N 69°45' E 019°04'1 2.9
2017-Apr-21 01:00N 69°46' E 019°07'2 3.1
2017-Apr-21 00:30N 69°47' E 019°11'1 2.9
2017-Apr-21 00:00N 69°47' E 019°15'1 2.8
2017-Apr-20 23:30N 69°48' E 019°19'1 3.0
2017-Apr-20 23:00N 69°48' E 019°23'1 2.9
2017-Apr-20 22:30N 69°49' E 019°27'2 3.0
2017-Apr-20 22:00N 69°49' E 019°31'1 2.9
2017-Apr-20 21:30N 69°50' E 019°35'1 2.8
2017-Apr-20 21:00N 69°50' E 019°39'1 2.7
2017-Apr-20 20:30N 69°51' E 019°42'1 2.9
2017-Apr-20 20:00N 69°52' E 019°46'1 2.8
2017-Apr-20 19:30N 69°52' E 019°49'1 2.8
2017-Apr-20 19:00N 69°53' E 019°52'1 2.9
2017-Apr-20 18:30N 69°54' E 019°56'1 3.0
2017-Apr-20 18:00N 69°55' E 019°59'2 3.0
2017-Apr-20 17:29N 69°56' E 020°02'1 2.8
2017-Apr-20 17:00N 69°57' E 020°05'1 2.2
2017-Apr-20 16:30N 69°57' E 020°08'3 5.1
2017-Apr-20 16:00N 69°59' E 020°14'3 6.1
2017-Apr-20 15:30N 70°00' E 020°22'3 6.2
2017-Apr-20 15:00N 70°01' E 020°31'3 6.4
2017-Apr-20 14:30N 70°02' E 020°40'6 6.4
2017-Apr-20 13:30N 70°04' E 020°58'2 3.6
2017-Apr-20 13:00N 70°03' E 021°02'1 1.3
2017-Apr-20 12:30N 70°02' E 021°01'0 0.3
2017-Apr-20 12:00N 70°02' E 021°01'3 6.7
2017-Apr-20 11:30N 70°05' E 021°03'4 9.1
2017-Apr-20 11:00N 70°10' E 021°04'3 5.2
2017-Apr-20 10:30N 70°12' E 021°06'2 4.3
2017-Apr-20 09:59N 70°14' E 021°09'2 4.8
2017-Apr-20 09:30N 70°16' E 021°15'3 5.4
2017-Apr-20 09:00N 70°17' E 021°21'3 5.5
2017-Apr-20 08:30N 70°19' E 021°27'3 5.1
2017-Apr-20 08:00N 70°21' E 021°32'3 5.1
2017-Apr-20 07:30N 70°23' E 021°37'2 4.9
2017-Apr-20 07:00N 70°24' E 021°43'2 4.6
2017-Apr-20 06:30N 70°25' E 021°50'2 4.4
2017-Apr-20 05:59N 70°26' E 021°56'2 4.8
2017-Apr-20 05:30N 70°26' E 022°03'2 5.1
2017-Apr-20 05:00N 70°27' E 022°10'2 4.4
2017-Apr-20 04:30N 70°27' E 022°17'2 4.6
2017-Apr-20 04:00N 70°28' E 022°23'3 5.1
2017-Apr-20 03:30N 70°29' E 022°31'2 5.0
2017-Apr-20 03:00N 70°29' E 022°38'3 5.0
2017-Apr-20 02:30N 70°30' E 022°45'3 5.4
2017-Apr-20 02:00N 70°31' E 022°53'3 5.1
2017-Apr-20 01:30N 70°32' E 022°59'2 4.9
2017-Apr-20 01:00N 70°34' E 023°04'2 4.7
2017-Apr-20 00:30N 70°35' E 023°09'2 4.9
2017-Apr-20 00:00N 70°37' E 023°15'3 5.1
2017-Apr-19 23:30N 70°38' E 023°22'3 5.2
2017-Apr-19 23:00N 70°39' E 023°29'3 5.1
2017-Apr-19 22:30N 70°39' E 023°37'1 2.6
2017-Apr-19 22:00N 70°40' E 023°41'4 7.2
2017-Apr-19 21:30N 70°42' E 023°33'612.1
2017-Apr-19 21:00N 70°47' E 023°45'612.2
2017-Apr-19 20:30N 70°51' E 023°58'612.3
2017-Apr-19 20:00N 70°55' E 024°11'612.4
2017-Apr-19 19:30N 70°60' E 024°25'510.6
2017-Apr-19 19:00N 71°01' E 024°40'612.4
2017-Apr-19 18:30N 70°60' E 024°59'612.7
2017-Apr-19 18:00N 70°59' E 025°18'511.0
2017-Apr-19 17:30N 70°56' E 025°32'510.8
2017-Apr-19 17:00N 70°56' E 025°48'3 5.7
2017-Apr-19 16:30N 70°58' E 025°56'1 2.5
2017-Apr-19 16:00N 70°59' E 025°58'3 5.9
2017-Apr-19 15:29N 70°58' E 026°07'611.2
2017-Apr-19 15:00N 70°58' E 026°24'510.9
2017-Apr-19 14:30N 70°59' E 026°41'  
Track history (hours):
 
Tides and Currents Weather Stations Pressure Air Temp Water Temp Dewpoint Dewpoint Depression Visibility Wind Speed Wind Dir Waves Ship Positions

Farm

Last reported at 2017-Apr-28 23:28 UTC. Time now 2017-Apr-28 23:47 UTC.
Position N 69°54' E 018°36'.

Length 46 m; draft 4 m.

Type: Law enforcement. MMSI: 257069200.

Date/timePositionNaut miles runAvg speedWind from/ knotsBaromVisibWave heightAir tempDewpointWater temp
2017-Apr-28 23:28N 69°54' E 018°36'0 0.1
2017-Apr-28 22:58N 69°54' E 018°36'0 0.1
2017-Apr-28 22:28N 69°54' E 018°36'0 0.1
2017-Apr-28 21:58N 69°54' E 018°36'0 0.1
2017-Apr-28 21:28N 69°54' E 018°36'0 0.0
2017-Apr-28 20:55N 69°54' E 018°36'0 0.0
2017-Apr-28 20:28N 69°54' E 018°36'1 1.1
2017-Apr-28 20:00N 69°54' E 018°38'4 8.6
2017-Apr-28 19:30N 69°53' E 018°50'510.0
2017-Apr-28 19:00N 69°49' E 018°60'3 6.5
2017-Apr-28 18:30N 69°46' E 019°04'0 0.3
2017-Apr-28 18:00N 69°46' E 019°04'0 0.4
2017-Apr-28 17:30N 69°46' E 019°04'0 0.3
2017-Apr-28 17:00N 69°47' E 019°04'0 0.2
2017-Apr-28 16:30N 69°47' E 019°05'0 0.7
2017-Apr-28 16:00N 69°47' E 019°04'3 6.2
2017-Apr-28 15:30N 69°49' E 018°60'4 7.7
2017-Apr-28 15:00N 69°52' E 018°51'7 6.6
2017-Apr-28 14:00N 69°57' E 018°37'0 0.2
2017-Apr-28 13:30N 69°57' E 018°37'1 3.0
2017-Apr-28 13:01N 69°58' E 018°35'5 9.6
2017-Apr-28 12:30N 70°03' E 018°36'2 4.6
2017-Apr-28 12:00N 70°05' E 018°38'1 2.1
2017-Apr-28 11:30N 70°06' E 018°38'0 0.4
2017-Apr-28 11:01N 70°06' E 018°39'0 0.4
2017-Apr-28 10:30N 70°05' E 018°39'2 3.5
2017-Apr-28 10:00N 70°07' E 018°40'3 5.2
2017-Apr-28 09:29N 70°09' E 018°46'2 3.3
2017-Apr-28 09:00N 70°08' E 018°44'4 8.5
2017-Apr-28 08:30N 70°09' E 018°57'5 9.9
2017-Apr-28 08:00N 70°06' E 019°09'5 9.7
2017-Apr-28 07:30N 70°10' E 019°17'3 7.0
2017-Apr-28 07:00N 70°13' E 019°16'0 0.1
2017-Apr-28 06:28N 70°14' E 019°16'0 0.0
2017-Apr-28 05:58N 70°14' E 019°16'0 0.1
2017-Apr-28 05:28N 70°14' E 019°16'0 0.0
2017-Apr-28 04:58N 70°14' E 019°16'0 0.0
2017-Apr-28 04:28N 70°14' E 019°16'0 0.0
2017-Apr-28 03:58N 70°14' E 019°16'0 0.1
2017-Apr-28 03:28N 70°14' E 019°16'0 0.2
2017-Apr-28 02:58N 70°13' E 019°16'0 0.1
2017-Apr-28 02:28N 70°13' E 019°16'0 0.0
2017-Apr-28 01:58N 70°13' E 019°16'0 0.0
2017-Apr-28 01:28N 70°13' E 019°16'0 0.0
2017-Apr-28 00:58N 70°13' E 019°16'0 0.0
2017-Apr-28 00:28N 70°13' E 019°16'0 0.0
2017-Apr-27 23:58N 70°13' E 019°16'0 0.0
2017-Apr-27 23:28N 70°13' E 019°16'0 0.0
2017-Apr-27 22:58N 70°13' E 019°16'0 0.0
2017-Apr-27 22:28N 70°13' E 019°16'0 0.0
2017-Apr-27 21:58N 70°13' E 019°16'0 0.0
2017-Apr-27 21:28N 70°13' E 019°16'0 0.0
2017-Apr-27 20:58N 70°13' E 019°16'0 0.0
2017-Apr-27 20:28N 70°13' E 019°16'0 0.0
2017-Apr-27 19:58N 70°13' E 019°16'0 0.0
2017-Apr-27 19:28N 70°13' E 019°16'0 0.0
2017-Apr-27 18:58N 70°13' E 019°16'0 0.0
2017-Apr-27 18:28N 70°13' E 019°16'0 0.2
2017-Apr-27 18:00N 70°13' E 019°16'3 5.6
2017-Apr-27 17:30N 70°12' E 019°23'5 9.3
2017-Apr-27 17:00N 70°08' E 019°32'3 6.0
2017-Apr-27 16:30N 70°06' E 019°37'4 8.3
2017-Apr-27 16:00N 70°03' E 019°45'612.0
2017-Apr-27 15:30N 70°04' E 020°03'612.7
2017-Apr-27 15:00N 70°08' E 020°16'1211.6
2017-Apr-27 14:00N 70°15' E 020°44'612.5
2017-Apr-27 13:30N 70°16' E 021°02'510.4
2017-Apr-27 13:00N 70°17' E 021°17'5 9.0
2017-Apr-27 12:30N 70°20' E 021°29'612.1
2017-Apr-27 12:00N 70°24' E 021°41'612.4
2017-Apr-27 11:30N 70°21' E 021°58'510.5
2017-Apr-27 11:00N 70°19' E 022°12'3 5.7
2017-Apr-27 10:30N 70°18' E 022°20'713.1
2017-Apr-27 10:00N 70°15' E 022°37'713.2
2017-Apr-27 09:30N 70°13' E 022°56'712.9
2017-Apr-27 09:00N 70°07' E 023°04'612.3
2017-Apr-27 08:30N 70°02' E 023°15'4 7.4
2017-Apr-27 08:00N 69°59' E 023°20'0 0.0
2017-Apr-27 07:29N 69°59' E 023°20'0 0.0
2017-Apr-27 06:59N 69°59' E 023°20'0 0.0
2017-Apr-27 06:29N 69°59' E 023°20'0 0.0
2017-Apr-27 05:59N 69°59' E 023°20'0 0.0
2017-Apr-27 05:29N 69°59' E 023°20'0 0.0
2017-Apr-27 04:59N 69°59' E 023°20'0 0.0
2017-Apr-27 04:29N 69°59' E 023°20'0 0.0
2017-Apr-27 03:59N 69°59' E 023°20'0 0.0
2017-Apr-27 03:29N 69°59' E 023°20'0 0.0
2017-Apr-27 02:59N 69°59' E 023°20'0 0.0
2017-Apr-27 02:29N 69°59' E 023°20'0 0.0
2017-Apr-27 01:59N 69°59' E 023°20'0 0.0
2017-Apr-27 01:29N 69°59' E 023°20'0 0.0
2017-Apr-27 00:59N 69°59' E 023°20'0 0.0
2017-Apr-27 00:29N 69°59' E 023°20'0 0.0
2017-Apr-26 23:59N 69°59' E 023°20'0 0.0
2017-Apr-26 23:29N 69°59' E 023°20'0 0.0
2017-Apr-26 22:59N 69°59' E 023°20'0 0.0
2017-Apr-26 22:29N 69°59' E 023°20'0 0.0
2017-Apr-26 21:59N 69°59' E 023°20'0 0.0
2017-Apr-26 21:29N 69°59' E 023°20'0 0.0
2017-Apr-26 20:59N 69°59' E 023°20'0 0.0
2017-Apr-26 20:29N 69°59' E 023°20'0 0.0
2017-Apr-26 19:59N 69°59' E 023°20'0 0.0
2017-Apr-26 19:29N 69°59' E 023°20'0 0.0
2017-Apr-26 18:59N 69°59' E 023°20'0 0.0
2017-Apr-26 18:29N 69°59' E 023°20'0 0.0
2017-Apr-26 17:59N 69°59' E 023°20'0 0.0
2017-Apr-26 17:29N 69°59' E 023°20'0 0.0
2017-Apr-26 16:59N 69°59' E 023°20'0 0.0
2017-Apr-26 16:29N 69°59' E 023°20'0 0.0
2017-Apr-26 15:59N 69°59' E 023°20'0 0.0
2017-Apr-26 15:29N 69°59' E 023°20'0 0.0
2017-Apr-26 14:59N 69°59' E 023°20'0 0.0
2017-Apr-26 14:29N 69°59' E 023°20'0 0.0
2017-Apr-26 13:29N 69°59' E 023°20'0 0.0
2017-Apr-26 12:59N 69°59' E 023°20'0 0.0
2017-Apr-26 12:29N 69°59' E 023°20'0 0.0
2017-Apr-26 11:59N 69°59' E 023°20'0 0.0
2017-Apr-26 11:29N 69°59' E 023°20'0 0.0
2017-Apr-26 10:59N 69°59' E 023°20'0 0.0
2017-Apr-26 10:29N 69°59' E 023°20'0 0.0
2017-Apr-26 09:59N 69°59' E 023°20'0 0.0
2017-Apr-26 09:29N 69°59' E 023°20'0 0.0
2017-Apr-26 08:59N 69°59' E 023°20'0 0.0
2017-Apr-26 08:29N 69°59' E 023°20'0 0.0
2017-Apr-26 07:59N 69°59' E 023°20'0 0.0
2017-Apr-26 07:29N 69°59' E 023°20'0 0.0
2017-Apr-26 06:59N 69°59' E 023°20'0 0.0
2017-Apr-26 06:29N 69°59' E 023°20'0 0.0
2017-Apr-26 05:59N 69°59' E 023°20'0 0.0
2017-Apr-26 05:29N 69°59' E 023°20'0 0.0
2017-Apr-26 04:59N 69°59' E 023°20'0 0.0
2017-Apr-26 04:29N 69°59' E 023°20'0 0.0
2017-Apr-26 03:59N 69°59' E 023°20'0 0.0
2017-Apr-26 03:29N 69°59' E 023°20'0 0.0
2017-Apr-26 02:59N 69°59' E 023°20'0 0.0
2017-Apr-26 02:29N 69°59' E 023°20'0 0.0
2017-Apr-26 01:59N 69°59' E 023°20'0 0.0
2017-Apr-26 01:29N 69°59' E 023°20'0 0.0
2017-Apr-26 00:59N 69°59' E 023°20'0 0.0
2017-Apr-26 00:29N 69°59' E 023°20'0 0.0
2017-Apr-25 23:59N 69°59' E 023°20'0 0.0
2017-Apr-25 23:29N 69°59' E 023°20'0 0.0
2017-Apr-25 22:59N 69°59' E 023°20'0 0.0
2017-Apr-25 22:29N 69°59' E 023°20'0 0.0
2017-Apr-25 21:59N 69°59' E 023°20'0 0.0
2017-Apr-25 21:29N 69°59' E 023°20'0 0.0
2017-Apr-25 20:59N 69°59' E 023°20'0 0.0
2017-Apr-25 20:29N 69°59' E 023°20'0 0.0
2017-Apr-25 19:59N 69°59' E 023°20'0 0.0
2017-Apr-25 19:29N 69°59' E 023°20'0 0.0
2017-Apr-25 18:59N 69°59' E 023°20'0 0.0
2017-Apr-25 18:29N 69°59' E 023°20'0 0.0
2017-Apr-25 17:59N 69°59' E 023°20'0 0.0
2017-Apr-25 17:29N 69°59' E 023°20'0 0.0
2017-Apr-25 16:59N 69°59' E 023°20'0 0.0
2017-Apr-25 16:29N 69°59' E 023°20'0 0.0
2017-Apr-25 15:59N 69°59' E 023°20'0 0.0
2017-Apr-25 15:29N 69°59' E 023°20'0 0.0
2017-Apr-25 14:59N 69°59' E 023°20'0 0.0
2017-Apr-25 14:29N 69°59' E 023°20'0 0.0
2017-Apr-25 13:29N 69°59' E 023°20'0 0.0
2017-Apr-25 12:59N 69°59' E 023°20'0 0.0
2017-Apr-25 12:29N 69°59' E 023°20'0 0.0
2017-Apr-25 11:59N 69°59' E 023°20'0 0.0
2017-Apr-25 11:29N 69°59' E 023°20'0 0.0
2017-Apr-25 10:59N 69°59' E 023°20'0 0.0
2017-Apr-25 10:29N 69°59' E 023°20'0 0.0
2017-Apr-25 09:59N 69°59' E 023°20'0 0.0
2017-Apr-25 09:29N 69°59' E 023°20'0 0.0
2017-Apr-25 08:59N 69°59' E 023°20'0 0.0
2017-Apr-25 08:29N 69°59' E 023°20'0 0.0
2017-Apr-25 07:59N 69°59' E 023°20'0 0.0
2017-Apr-25 07:29N 69°59' E 023°20'0 0.0
2017-Apr-25 06:59N 69°59' E 023°20'0 0.0
2017-Apr-25 06:29N 69°59' E 023°20'0 0.0
2017-Apr-25 05:59N 69°59' E 023°20'0 0.0
2017-Apr-25 05:29N 69°59' E 023°20'0 0.3
2017-Apr-25 05:00N 69°59' E 023°19'3 5.1
2017-Apr-25 04:30N 70°01' E 023°17'5 9.9
2017-Apr-25 04:00N 70°05' E 023°07'5 9.3
2017-Apr-25 03:30N 70°09' E 023°00'0 0.9
2017-Apr-25 02:59N 70°09' E 022°59'0 0.0
2017-Apr-25 02:29N 70°09' E 022°59'0 0.1
2017-Apr-25 01:59N 70°09' E 022°59'0 0.0
2017-Apr-25 01:29N 70°09' E 022°59'0 0.1
2017-Apr-25 00:59N 70°09' E 022°59'0 0.1
2017-Apr-25 00:29N 70°09' E 022°59'0 0.1
2017-Apr-24 23:59N 70°09' E 022°59'0 0.0
2017-Apr-24 23:29N 70°09' E 022°59'0 0.0
2017-Apr-24 22:59N 70°09' E 022°59'0 0.1
2017-Apr-24 22:29N 70°09' E 022°59'0 0.0
2017-Apr-24 21:59N 70°09' E 022°59'0 0.0
2017-Apr-24 21:29N 70°09' E 022°59'0 0.0
2017-Apr-24 20:59N 70°09' E 022°59'0 0.0
2017-Apr-24 20:29N 70°09' E 022°59'0 0.0
2017-Apr-24 19:59N 70°09' E 022°59'0 0.1
2017-Apr-24 19:29N 70°09' E 022°59'0 0.0
2017-Apr-24 18:59N 70°09' E 022°59'0 0.1
2017-Apr-24 18:29N 70°09' E 022°59'0 0.0
2017-Apr-24 17:59N 70°09' E 022°59'0 0.0
2017-Apr-24 17:29N 70°09' E 022°59'0 0.0
2017-Apr-24 16:59N 70°09' E 022°59'0 0.0
2017-Apr-24 16:29N 70°09' E 022°59'0 0.1
2017-Apr-24 15:59N 70°09' E 022°59'0 0.0
2017-Apr-24 15:29N 70°09' E 022°59'0 0.0
2017-Apr-24 14:59N 70°09' E 022°59'0 0.0
2017-Apr-24 14:29N 70°09' E 022°59'0 0.0
2017-Apr-24 13:29N 70°09' E 022°59'0 0.0
2017-Apr-24 12:59N 70°09' E 022°59'0 0.0
2017-Apr-24 12:29N 70°09' E 022°59'0 0.0
2017-Apr-24 11:59N 70°09' E 022°59'0 0.0
2017-Apr-24 11:29N 70°09' E 022°59'0 0.0
2017-Apr-24 10:59N 70°09' E 022°59'0 0.1
2017-Apr-24 10:29N 70°09' E 022°59'0 0.0
2017-Apr-24 09:59N 70°09' E 022°59'0 0.0
2017-Apr-24 09:29N 70°09' E 022°59'0 0.1
2017-Apr-24 08:59N 70°09' E 022°59'0 0.0
2017-Apr-24 08:29N 70°09' E 022°59'0 0.0
2017-Apr-24 07:59N 70°09' E 022°59'0 0.0
2017-Apr-24 07:29N 70°09' E 022°59'0 0.0
2017-Apr-24 06:59N 70°09' E 022°59'0 0.0
2017-Apr-24 06:29N 70°09' E 022°59'0 0.0
2017-Apr-24 05:59N 70°09' E 022°59'0 0.0
2017-Apr-24 05:29N 70°09' E 022°59'0 0.0
2017-Apr-24 04:59N 70°09' E 022°59'0 0.0
2017-Apr-24 04:29N 70°09' E 022°59'0 0.0
2017-Apr-24 03:59N 70°09' E 022°59'0 0.0
2017-Apr-24 03:29N 70°09' E 022°59'0 0.0
2017-Apr-24 02:59N 70°09' E 022°59'0 0.0
2017-Apr-24 02:29N 70°09' E 022°59'0 0.0
2017-Apr-24 01:59N 70°09' E 022°59'0 0.1
2017-Apr-24 01:29N 70°09' E 022°59'0 0.0
2017-Apr-24 00:59N 70°09' E 022°59'0 0.0
2017-Apr-24 00:29N 70°09' E 022°59'0 0.1
2017-Apr-23 23:59N 70°09' E 022°59'0 0.0
2017-Apr-23 23:29N 70°09' E 022°59'0 0.0
2017-Apr-23 22:59N 70°09' E 022°59'0 0.0
2017-Apr-23 22:29N 70°09' E 022°59'0 0.0
2017-Apr-23 21:59N 70°09' E 022°59'0 0.1
2017-Apr-23 21:29N 70°09' E 022°59'0 0.0
2017-Apr-23 20:59N 70°09' E 022°59'0 0.1
2017-Apr-23 20:30N 70°09' E 022°59'4 7.3
2017-Apr-23 20:00N 70°12' E 022°58'510.4
2017-Apr-23 19:30N 70°14' E 022°43'510.3
2017-Apr-23 19:00N 70°15' E 022°28'3 5.6
2017-Apr-23 18:30N 70°14' E 022°21'0 0.0
2017-Apr-23 18:00N 70°14' E 022°21'0 0.0
2017-Apr-23 17:31N 70°14' E 022°21'1 2.5
2017-Apr-23 17:00N 70°15' E 022°20'4 9.0
2017-Apr-23 16:30N 70°16' E 022°33'4 8.4
2017-Apr-23 16:00N 70°15' E 022°44'2 4.1
2017-Apr-23 15:30N 70°15' E 022°50'4 7.2
2017-Apr-23 15:00N 70°15' E 023°01'6 6.1
2017-Apr-23 14:00N 70°21' E 022°56'3 6.3
2017-Apr-23 13:30N 70°18' E 022°60'4 8.5
2017-Apr-23 13:00N 70°13' E 023°00'3 5.7
2017-Apr-23 12:30N 70°11' E 022°58'5 9.8
2017-Apr-23 12:00N 70°12' E 023°12'3 6.7
2017-Apr-23 11:30N 70°09' E 023°18'2 3.5
2017-Apr-23 11:00N 70°07' E 023°19'510.2
2017-Apr-23 10:30N 70°07' E 023°04'1 2.2
2017-Apr-23 10:00N 70°07' E 023°01'2 4.8
2017-Apr-23 09:30N 70°05' E 023°06'3 5.3
2017-Apr-23 09:00N 70°03' E 023°05'2 3.2
2017-Apr-23 08:30N 70°01' E 023°02'2 4.2
2017-Apr-23 07:59N 70°02' E 023°08'5 9.6
2017-Apr-23 07:30N 70°01' E 023°22'0 0.1
2017-Apr-23 07:00N 70°01' E 023°22'1 2.1
2017-Apr-23 06:30N 70°00' E 023°24'0 0.6
2017-Apr-23 06:00N 70°00' E 023°25'0 0.0
2017-Apr-23 05:30N 70°00' E 023°25'0 0.0
2017-Apr-23 05:00N 70°00' E 023°25'0 0.1
2017-Apr-23 04:30N 70°00' E 023°25'0 0.0
2017-Apr-23 04:00N 70°00' E 023°25'0 0.0
2017-Apr-23 03:30N 70°00' E 023°25'0 0.0
2017-Apr-23 03:00N 70°00' E 023°25'0 0.0
2017-Apr-23 02:30N 70°00' E 023°25'0 0.0
2017-Apr-23 02:00N 70°00' E 023°25'0 0.0
2017-Apr-23 01:30N 70°00' E 023°25'0 0.0
2017-Apr-23 01:00N 70°00' E 023°25'0 0.0
2017-Apr-23 00:30N 70°00' E 023°25'0 0.0
2017-Apr-23 00:00N 70°00' E 023°25'0 0.0
2017-Apr-22 23:30N 70°00' E 023°25'0 0.0
2017-Apr-22 23:00N 70°00' E 023°25'0 0.0
2017-Apr-22 22:30N 70°00' E 023°25'0 0.0
2017-Apr-22 22:00N 70°00' E 023°25'0 0.0
2017-Apr-22 21:30N 70°00' E 023°25'0 0.2
2017-Apr-22 21:00N 70°00' E 023°25'5 8.9
2017-Apr-22 20:30N 70°02' E 023°13'3 6.7
2017-Apr-22 20:00N 70°05' E 023°07'510.4
2017-Apr-22 19:30N 70°10' E 023°08'510.3
2017-Apr-22 19:00N 70°15' E 023°14'510.7
2017-Apr-22 18:30N 70°19' E 023°23'510.2
2017-Apr-22 18:00N 70°23' E 023°33'1 1.4
2017-Apr-22 17:30N 70°23' E 023°32'511.0
2017-Apr-22 17:00N 70°19' E 023°23'4 7.7
2017-Apr-22 16:30N 70°16' E 023°17'0 0.4
2017-Apr-22 16:00N 70°16' E 023°16'2 3.4
2017-Apr-22 15:30N 70°16' E 023°11'2 5.0
2017-Apr-22 15:00N 70°17' E 023°04'1 2.8
2017-Apr-22 14:31N 70°16' E 023°01'5 5.3
2017-Apr-22 13:30N 70°13' E 022°49'2 3.3
2017-Apr-22 13:00N 70°13' E 022°44'510.8
2017-Apr-22 12:30N 70°15' E 022°29'1 2.1
2017-Apr-22 12:00N 70°16' E 022°31'1 1.5
2017-Apr-22 11:30N 70°16' E 022°33'0 0.3
2017-Apr-22 11:00N 70°16' E 022°32'1 2.3
2017-Apr-22 10:30N 70°16' E 022°29'0 0.0
2017-Apr-22 10:00N 70°16' E 022°29'0 0.0
2017-Apr-22 09:30N 70°16' E 022°29'0 0.0
2017-Apr-22 09:00N 70°16' E 022°29'1 2.1
2017-Apr-22 08:30N 70°16' E 022°26'3 4.9
2017-Apr-22 07:59N 70°14' E 022°21'0 0.0
2017-Apr-22 07:29N 70°14' E 022°21'0 0.0
2017-Apr-22 06:59N 70°14' E 022°21'0 0.0
2017-Apr-22 06:29N 70°14' E 022°21'0 0.2
2017-Apr-22 06:00N 70°14' E 022°21'1 2.3
2017-Apr-22 05:30N 70°13' E 022°18'1 2.4
2017-Apr-22 05:00N 70°15' E 022°19'2 4.2
2017-Apr-22 04:30N 70°17' E 022°19'3 5.6
2017-Apr-22 04:00N 70°19' E 022°13'3 5.6
2017-Apr-22 03:30N 70°20' E 022°06'3 5.9
2017-Apr-22 03:00N 70°21' E 021°58'3 5.9
2017-Apr-22 02:30N 70°23' E 021°50'3 6.1
2017-Apr-22 02:00N 70°24' E 021°42'3 6.2
2017-Apr-22 01:30N 70°22' E 021°35'3 6.5
2017-Apr-22 01:00N 70°19' E 021°29'3 6.6
2017-Apr-22 00:30N 70°17' E 021°22'3 6.5
2017-Apr-22 00:00N 70°15' E 021°14'3 6.4
2017-Apr-21 23:30N 70°13' E 021°07'3 6.4
2017-Apr-21 23:00N 70°10' E 021°03'3 6.3
2017-Apr-21 22:29N 70°07' E 020°59'3 5.9
2017-Apr-21 22:00N 70°04' E 020°55'3 5.8
2017-Apr-21 21:30N 70°03' E 020°48'3 6.3
2017-Apr-21 21:00N 70°02' E 020°40'3 5.8
2017-Apr-21 20:30N 70°01' E 020°32'3 5.8
2017-Apr-21 20:00N 69°60' E 020°24'3 6.2
2017-Apr-21 19:29N 69°59' E 020°15'3 5.9
2017-Apr-21 19:00N 69°57' E 020°08'3 5.7
2017-Apr-21 18:30N 69°55' E 020°02'3 6.3
2017-Apr-21 18:00N 69°53' E 019°55'4 8.2
2017-Apr-21 17:30N 69°51' E 019°45'4 8.4
2017-Apr-21 17:00N 69°49' E 019°34'4 8.7
2017-Apr-21 16:30N 69°48' E 019°22'4 8.5
2017-Apr-21 16:00N 69°47' E 019°11'4 7.4
2017-Apr-21 15:30N 69°44' E 019°04'3 6.6
2017-Apr-21 15:00N 69°41' E 019°00'0 0.8
2017-Apr-21 14:30N 69°40' E 018°59'0 0.5
2017-Apr-21 13:30N 69°40' E 018°59'1 1.0
2017-Apr-21 12:59N 69°39' E 018°58'0 0.0
2017-Apr-21 12:29N 69°39' E 018°58'0 0.0
2017-Apr-21 11:59N 69°39' E 018°58'0 0.0
2017-Apr-21 11:29N 69°39' E 018°58'0 0.0
2017-Apr-21 10:59N 69°39' E 018°58'0 0.0
2017-Apr-21 10:29N 69°39' E 018°58'0 0.0
2017-Apr-21 09:59N 69°39' E 018°58'0 0.0
2017-Apr-21 09:29N 69°39' E 018°58'0 0.0
2017-Apr-21 08:59N 69°39' E 018°58'0 0.4
2017-Apr-21 08:30N 69°40' E 018°59'1 1.6
2017-Apr-21 08:00N 69°40' E 018°59'2 3.8
2017-Apr-21 07:30N 69°42' E 019°03'1 1.1
2017-Apr-21 07:00N 69°42' E 019°04'0 0.0
2017-Apr-21 06:30N 69°42' E 019°04'0 0.0
2017-Apr-21 06:00N 69°42' E 019°04'0 0.0
2017-Apr-21 05:30N 69°42' E 019°04'0 0.5
2017-Apr-21 05:00N 69°42' E 019°04'0 0.2
2017-Apr-21 04:30N 69°42' E 019°04'1 1.3
2017-Apr-21 04:00N 69°43' E 019°04'2 3.8
2017-Apr-21 03:30N 69°44' E 019°03'0 0.3
2017-Apr-21 03:00N 69°45' E 019°03'0 0.4
2017-Apr-21 02:30N 69°45' E 019°03'0 0.2
2017-Apr-21 02:00N 69°45' E 019°03'1 1.6
2017-Apr-21 01:29N 69°45' E 019°04'1 2.9
2017-Apr-21 01:00N 69°46' E 019°07'2 3.1
2017-Apr-21 00:30N 69°47' E 019°11'1 2.9
2017-Apr-21 00:00N 69°47' E 019°15'1 2.8
2017-Apr-20 23:30N 69°48' E 019°19'1 3.0
2017-Apr-20 23:00N 69°48' E 019°23'1 2.9
2017-Apr-20 22:30N 69°49' E 019°27'2 3.0
2017-Apr-20 22:00N 69°49' E 019°31'1 2.9
2017-Apr-20 21:30N 69°50' E 019°35'1 2.8
2017-Apr-20 21:00N 69°50' E 019°39'1 2.7
2017-Apr-20 20:30N 69°51' E 019°42'1 2.9
2017-Apr-20 20:00N 69°52' E 019°46'1 2.8
2017-Apr-20 19:30N 69°52' E 019°49'1 2.8
2017-Apr-20 19:00N 69°53' E 019°52'1 2.9
2017-Apr-20 18:30N 69°54' E 019°56'1 3.0
2017-Apr-20 18:00N 69°55' E 019°59'2 3.0
2017-Apr-20 17:29N 69°56' E 020°02'1 2.8
2017-Apr-20 17:00N 69°57' E 020°05'1 2.2
2017-Apr-20 16:30N 69°57' E 020°08'3 5.1
2017-Apr-20 16:00N 69°59' E 020°14'3 6.1
2017-Apr-20 15:30N 70°00' E 020°22'3 6.2
2017-Apr-20 15:00N 70°01' E 020°31'3 6.4
2017-Apr-20 14:30N 70°02' E 020°40'6 6.4
2017-Apr-20 13:30N 70°04' E 020°58'2 3.6
2017-Apr-20 13:00N 70°03' E 021°02'1 1.3
2017-Apr-20 12:30N 70°02' E 021°01'0 0.3
2017-Apr-20 12:00N 70°02' E 021°01'3 6.7
2017-Apr-20 11:30N 70°05' E 021°03'4 9.1
2017-Apr-20 11:00N 70°10' E 021°04'3 5.2
2017-Apr-20 10:30N 70°12' E 021°06'2 4.3
2017-Apr-20 09:59N 70°14' E 021°09'2 4.8
2017-Apr-20 09:30N 70°16' E 021°15'3 5.4
2017-Apr-20 09:00N 70°17' E 021°21'3 5.5
2017-Apr-20 08:30N 70°19' E 021°27'3 5.1
2017-Apr-20 08:00N 70°21' E 021°32'3 5.1
2017-Apr-20 07:30N 70°23' E 021°37'2 4.9
2017-Apr-20 07:00N 70°24' E 021°43'2 4.6
2017-Apr-20 06:30N 70°25' E 021°50'2 4.4
2017-Apr-20 05:59N 70°26' E 021°56'2 4.8
2017-Apr-20 05:30N 70°26' E 022°03'2 5.1
2017-Apr-20 05:00N 70°27' E 022°10'2 4.4
2017-Apr-20 04:30N 70°27' E 022°17'2 4.6
2017-Apr-20 04:00N 70°28' E 022°23'3 5.1
2017-Apr-20 03:30N 70°29' E 022°31'2 5.0
2017-Apr-20 03:00N 70°29' E 022°38'3 5.0
2017-Apr-20 02:30N 70°30' E 022°45'3 5.4
2017-Apr-20 02:00N 70°31' E 022°53'3 5.1
2017-Apr-20 01:30N 70°32' E 022°59'2 4.9
2017-Apr-20 01:00N 70°34' E 023°04'2 4.7
2017-Apr-20 00:30N 70°35' E 023°09'2 4.9
2017-Apr-20 00:00N 70°37' E 023°15'3 5.1
2017-Apr-19 23:30N 70°38' E 023°22'3 5.2
2017-Apr-19 23:00N 70°39' E 023°29'3 5.1
2017-Apr-19 22:30N 70°39' E 023°37'1 2.6
2017-Apr-19 22:00N 70°40' E 023°41'4 7.2
2017-Apr-19 21:30N 70°42' E 023°33'612.1
2017-Apr-19 21:00N 70°47' E 023°45'612.2
2017-Apr-19 20:30N 70°51' E 023°58'612.3
2017-Apr-19 20:00N 70°55' E 024°11'612.4
2017-Apr-19 19:30N 70°60' E 024°25'510.6
2017-Apr-19 19:00N 71°01' E 024°40'612.4
2017-Apr-19 18:30N 70°60' E 024°59'612.7
2017-Apr-19 18:00N 70°59' E 025°18'511.0
2017-Apr-19 17:30N 70°56' E 025°32'510.8
2017-Apr-19 17:00N 70°56' E 025°48'3 5.7
2017-Apr-19 16:30N 70°58' E 025°56'1 2.5
2017-Apr-19 16:00N 70°59' E 025°58'3 5.9
2017-Apr-19 15:29N 70°58' E 026°07'611.2
2017-Apr-19 15:00N 70°58' E 026°24'510.9
2017-Apr-19 14:30N 70°59' E 026°41'  

Dump ship's entire track history